createdAt,value
2022-08-21T00:00:44.270Z,20.31
2022-08-21T00:03:14.788Z,20.23
2022-08-21T00:05:47.620Z,20.19
2022-08-21T00:08:15.962Z,20.24
2022-08-21T00:10:45.833Z,20.19
2022-08-21T00:13:18.711Z,20.07
2022-08-21T00:15:50.614Z,20.03
2022-08-21T00:18:20.276Z,20.00
2022-08-21T00:20:49.249Z,19.95
2022-08-21T00:23:17.965Z,19.93
2022-08-21T00:25:47.023Z,19.96
2022-08-21T00:28:15.492Z,19.93
2022-08-21T00:30:45.557Z,19.86
2022-08-21T00:33:15.165Z,19.87
2022-08-21T00:35:45.153Z,19.93
2022-08-21T00:38:13.680Z,19.90
2022-08-21T00:40:46.186Z,19.88
2022-08-21T00:43:17.833Z,19.82
2022-08-21T00:45:46.316Z,19.80
2022-08-21T00:48:15.772Z,19.80
2022-08-21T00:50:51.750Z,19.74
2022-08-21T00:53:20.536Z,19.82
2022-08-21T00:55:49.426Z,19.76
2022-08-21T00:58:18.917Z,19.77
2022-08-21T01:00:50.839Z,19.72
2022-08-21T01:03:24.347Z,19.76
2022-08-21T01:05:53.810Z,19.66
2022-08-21T01:08:24.150Z,19.63
2022-08-21T01:10:55.068Z,19.54
2022-08-21T01:13:28.492Z,19.57
2022-08-21T01:16:01.465Z,19.47
2022-08-21T01:18:31.283Z,19.50
2022-08-21T01:21:06.205Z,19.61
2022-08-21T01:23:35.506Z,19.53
2022-08-21T01:26:03.998Z,19.43
2022-08-21T01:28:36.537Z,19.45
2022-08-21T01:31:07.172Z,19.31
2022-08-21T01:33:35.661Z,19.39
2022-08-21T01:36:06.121Z,19.30
2022-08-21T01:38:34.491Z,19.34
2022-08-21T01:41:03.459Z,19.42
2022-08-21T01:43:39.369Z,19.28
2022-08-21T01:46:08.573Z,19.22
2022-08-21T01:48:36.900Z,19.28
2022-08-21T01:51:07.401Z,19.24
2022-08-21T01:53:37.584Z,19.17
2022-08-21T01:56:12.585Z,19.10
2022-08-21T01:58:41.860Z,19.06
2022-08-21T02:01:11.030Z,19.17
2022-08-21T02:03:39.711Z,19.18
2022-08-21T02:06:14.766Z,19.16
2022-08-21T02:08:42.813Z,19.11
2022-08-21T02:11:11.046Z,19.12
2022-08-21T02:13:39.080Z,19.04
2022-08-21T02:16:31.955Z,19.12
2022-08-21T02:19:01.447Z,19.05
2022-08-21T02:21:30.921Z,19.13
2022-08-21T02:23:59.589Z,18.99
2022-08-21T02:26:27.884Z,19.04
2022-08-21T02:28:56.035Z,18.97
2022-08-21T02:31:25.503Z,18.87
2022-08-21T02:33:54.095Z,18.89
2022-08-21T02:36:22.757Z,18.89
2022-08-21T02:38:52.187Z,18.85
2022-08-21T02:41:24.331Z,18.90
2022-08-21T02:43:52.858Z,18.77
2022-08-21T02:46:22.948Z,18.83
2022-08-21T02:48:51.431Z,18.83
2022-08-21T02:51:23.477Z,18.75
2022-08-21T02:53:52.995Z,18.72
2022-08-21T02:56:23.369Z,18.74
2022-08-21T02:58:54.121Z,18.66
2022-08-21T03:01:22.766Z,18.65
2022-08-21T03:03:51.796Z,18.57
2022-08-21T03:06:23.157Z,18.53
2022-08-21T03:08:52.841Z,18.47
2022-08-21T03:11:21.713Z,18.43
2022-08-21T03:13:49.744Z,18.38
2022-08-21T03:16:17.752Z,18.35
2022-08-21T03:18:45.779Z,18.38
2022-08-21T03:21:14.182Z,18.38
2022-08-21T03:23:42.973Z,18.36
2022-08-21T03:26:13.412Z,18.38
2022-08-21T03:28:42.346Z,18.37
2022-08-21T03:31:10.451Z,18.31
2022-08-21T03:33:38.663Z,18.41
2022-08-21T03:36:09.706Z,18.35
2022-08-21T03:38:39.106Z,18.27
2022-08-21T03:41:08.401Z,18.23
2022-08-21T03:43:39.481Z,18.22
2022-08-21T03:46:08.352Z,18.14
2022-08-21T03:48:39.146Z,18.11
2022-08-21T03:51:08.594Z,18.00
2022-08-21T03:53:37.349Z,17.96
2022-08-21T03:56:07.702Z,17.89
2022-08-21T03:58:38.087Z,17.95
2022-08-21T04:01:08.596Z,18.01
2022-08-21T04:03:38.705Z,17.96
2022-08-21T04:06:08.496Z,17.96
2022-08-21T04:08:36.840Z,17.98
2022-08-21T04:11:05.315Z,17.98
2022-08-21T04:13:34.143Z,17.96
2022-08-21T04:16:03.809Z,17.87
2022-08-21T04:18:39.166Z,17.80
2022-08-21T04:21:10.943Z,17.79
2022-08-21T04:23:39.667Z,17.74
2022-08-21T04:26:08.170Z,17.71
2022-08-21T04:28:36.334Z,17.70
2022-08-21T04:31:06.219Z,17.66
2022-08-21T04:33:34.293Z,17.72
2022-08-21T04:36:02.624Z,17.82
2022-08-21T04:38:33.158Z,17.83
2022-08-21T04:41:07.355Z,17.83
2022-08-21T04:43:36.528Z,17.79
2022-08-21T04:46:06.619Z,17.76
2022-08-21T04:48:35.109Z,17.71
2022-08-21T04:51:09.203Z,17.71
2022-08-21T04:53:41.538Z,17.74
2022-08-21T04:56:14.740Z,17.76
2022-08-21T04:58:43.495Z,17.64
2022-08-21T05:01:20.813Z,17.68
2022-08-21T05:03:51.305Z,17.75
2022-08-21T05:06:20.517Z,17.82
2022-08-21T05:08:50.689Z,17.82
2022-08-21T05:11:26.283Z,17.80
2022-08-21T05:13:57.118Z,17.75
2022-08-21T05:16:36.815Z,17.77
2022-08-21T05:19:05.870Z,17.89
2022-08-21T05:21:34.088Z,17.94
2022-08-21T05:24:02.168Z,17.89
2022-08-21T05:26:30.726Z,17.97
2022-08-21T05:28:58.897Z,18.03
2022-08-21T05:31:28.415Z,18.05
2022-08-21T05:33:57.773Z,18.10
2022-08-21T05:36:26.211Z,18.15
2022-08-21T05:38:54.671Z,18.13
2022-08-21T05:41:24.383Z,18.18
2022-08-21T05:43:52.503Z,18.21
2022-08-21T05:46:20.543Z,18.23
2022-08-21T05:48:50.001Z,18.32
2022-08-21T05:51:18.601Z,18.35
2022-08-21T05:53:47.181Z,18.33
2022-08-21T05:56:16.406Z,18.42
2022-08-21T05:58:44.916Z,18.44
2022-08-21T06:01:13.141Z,18.47
2022-08-21T06:03:43.669Z,18.57
2022-08-21T06:06:13.024Z,18.65
2022-08-21T06:08:41.395Z,18.66
2022-08-21T06:11:10.834Z,18.77
2022-08-21T06:13:39.960Z,18.76
2022-08-21T06:16:16.030Z,18.88
2022-08-21T06:18:45.701Z,18.93
2022-08-21T06:21:15.467Z,19.02
2022-08-21T06:23:44.838Z,19.14
2022-08-21T06:26:16.336Z,19.17
2022-08-21T06:28:45.234Z,19.23
2022-08-21T06:31:16.016Z,19.32
2022-08-21T06:33:44.357Z,19.40
2022-08-21T06:36:13.819Z,19.44
2022-08-21T06:38:42.493Z,19.53
2022-08-21T06:41:24.073Z,19.59
2022-08-21T06:43:55.224Z,19.69
2022-08-21T06:46:24.202Z,19.75
2022-08-21T06:48:52.324Z,19.83
2022-08-21T06:51:21.863Z,19.94
2022-08-21T06:53:50.708Z,20.04
2022-08-21T06:56:19.422Z,20.13
2022-08-21T06:58:47.691Z,20.23
2022-08-21T07:01:15.787Z,20.35
2022-08-21T07:03:45.686Z,20.44
2022-08-21T07:06:14.225Z,20.51
2022-08-21T07:08:43.633Z,20.63
2022-08-21T07:11:16.663Z,20.69
2022-08-21T07:13:45.172Z,20.75
2022-08-21T07:16:14.222Z,20.82
2022-08-21T07:18:42.396Z,20.92
2022-08-21T07:21:11.175Z,20.92
2022-08-21T07:23:43.844Z,21.06
2022-08-21T07:26:13.046Z,21.23
2022-08-21T07:28:41.256Z,21.36
2022-08-21T07:31:14.554Z,21.47
2022-08-21T07:33:43.487Z,21.58
2022-08-21T07:36:12.571Z,21.70
2022-08-21T07:38:40.682Z,21.82
2022-08-21T07:41:18.784Z,21.91
2022-08-21T07:43:47.456Z,22.05
2022-08-21T07:46:16.776Z,22.17
2022-08-21T07:48:45.142Z,22.34
2022-08-21T07:51:17.171Z,22.42
2022-08-21T07:53:51.128Z,22.44
2022-08-21T07:56:21.051Z,22.55
2022-08-21T07:58:49.475Z,22.59
2022-08-21T08:01:17.970Z,22.67
2022-08-21T08:03:46.600Z,22.74
2022-08-21T08:06:14.879Z,22.84
2022-08-21T08:08:43.973Z,22.94
2022-08-21T08:11:16.117Z,23.07
2022-08-21T08:13:48.333Z,23.18
2022-08-21T08:16:17.035Z,23.20
2022-08-21T08:18:45.653Z,23.17
2022-08-21T08:21:15.014Z,23.24
2022-08-21T08:23:44.927Z,23.33
2022-08-21T08:26:13.426Z,23.38
2022-08-21T08:28:41.526Z,23.49
2022-08-21T08:31:11.056Z,23.67
2022-08-21T08:33:39.148Z,23.53
2022-08-21T08:36:14.013Z,23.60
2022-08-21T08:38:42.775Z,23.65
2022-08-21T08:41:16.133Z,23.76
2022-08-21T08:43:52.638Z,24.05
2022-08-21T08:46:30.902Z,24.26
2022-08-21T08:49:05.184Z,24.31
2022-08-21T08:51:45.166Z,24.24
2022-08-21T08:54:19.723Z,24.46
2022-08-21T08:56:48.661Z,24.61
2022-08-21T08:59:22.885Z,24.59
2022-08-21T09:01:52.461Z,24.58
2022-08-21T09:04:29.682Z,24.73
2022-08-21T09:07:14.539Z,24.95
2022-08-21T09:09:56.535Z,24.93
2022-08-21T09:12:40.169Z,24.92
2022-08-21T09:15:19.443Z,24.99
2022-08-21T09:18:21.456Z,25.39
2022-08-21T09:21:10.559Z,25.51
2022-08-21T09:23:52.154Z,25.62
2022-08-21T09:26:23.354Z,25.67
2022-08-21T09:28:56.833Z,25.82
2022-08-21T09:31:28.517Z,26.01
2022-08-21T09:34:03.740Z,26.21
2022-08-21T09:36:42.503Z,26.43
2022-08-21T09:39:13.205Z,26.61
2022-08-21T09:41:42.236Z,26.59
2022-08-21T09:44:11.021Z,26.61
2022-08-21T09:46:39.191Z,26.61
2022-08-21T09:49:10.413Z,26.78
2022-08-21T09:51:55.061Z,26.90
2022-08-21T09:54:31.761Z,27.11
2022-08-21T09:57:20.667Z,27.27
2022-08-21T09:59:49.624Z,27.32
2022-08-21T10:02:32.168Z,27.45
2022-08-21T10:05:05.807Z,27.46
2022-08-21T10:07:38.127Z,27.59
2022-08-21T10:10:10.733Z,27.63
2022-08-21T10:12:49.718Z,27.69
2022-08-21T10:15:26.011Z,27.77
2022-08-21T10:18:05.879Z,27.92
2022-08-21T10:20:46.356Z,28.02
2022-08-21T10:23:37.372Z,28.21
2022-08-21T10:26:21.882Z,28.33
2022-08-21T10:29:00.170Z,28.27
2022-08-21T10:31:39.250Z,28.25
2022-08-21T10:34:27.420Z,28.13
2022-08-21T10:37:16.365Z,28.05
2022-08-21T10:39:59.898Z,27.91
2022-08-21T10:42:37.593Z,27.92
2022-08-21T10:45:25.732Z,27.81
2022-08-21T10:47:58.922Z,27.70
2022-08-21T10:50:33.799Z,27.67
2022-08-21T10:53:34.227Z,27.54
2022-08-21T10:56:15.275Z,27.29
2022-08-21T10:58:59.270Z,27.27
2022-08-21T11:01:36.190Z,27.19
2022-08-21T11:04:18.302Z,27.15
2022-08-21T11:06:53.631Z,27.07
2022-08-21T11:09:27.619Z,27.00
2022-08-21T11:12:10.991Z,26.90
2022-08-21T11:14:51.642Z,26.83
2022-08-21T11:17:26.513Z,26.83
2022-08-21T11:20:01.516Z,26.75
2022-08-21T11:22:40.153Z,26.76
2022-08-21T11:25:19.282Z,26.90
2022-08-21T11:27:54.707Z,26.93
2022-08-21T11:30:26.025Z,27.03
2022-08-21T11:33:10.039Z,27.15
2022-08-21T11:35:46.351Z,27.24
2022-08-21T11:38:31.327Z,27.31
2022-08-21T11:41:18.131Z,27.44
2022-08-21T11:43:49.811Z,27.49
2022-08-21T11:46:33.252Z,27.57
2022-08-21T11:49:41.191Z,27.63
2022-08-21T11:52:18.444Z,27.74
2022-08-21T11:54:51.935Z,27.67
2022-08-21T11:57:26.768Z,27.66
2022-08-21T12:00:04.652Z,27.55
2022-08-21T12:02:47.629Z,27.54
2022-08-21T12:05:32.825Z,27.63
2022-08-21T12:08:09.420Z,27.76
2022-08-21T12:11:06.930Z,27.82
2022-08-21T12:13:40.212Z,27.84
2022-08-21T12:16:14.051Z,27.87
2022-08-21T12:18:43.690Z,27.72
2022-08-21T12:21:25.837Z,27.61
2022-08-21T12:24:06.606Z,27.56
2022-08-21T12:26:37.848Z,27.40
2022-08-21T12:29:15.251Z,27.16
2022-08-21T12:31:54.665Z,27.14
2022-08-21T12:34:28.368Z,27.09
2022-08-21T12:37:01.886Z,27.12
2022-08-21T12:39:33.687Z,26.91
2022-08-21T12:42:08.252Z,26.92
2022-08-21T12:44:45.846Z,26.95
2022-08-21T12:47:25.458Z,26.98
2022-08-21T12:50:02.152Z,27.05
2022-08-21T12:52:39.142Z,27.13
2022-08-21T12:55:12.991Z,27.11
2022-08-21T12:57:43.692Z,27.05
2022-08-21T13:00:22.700Z,27.16
2022-08-21T13:02:53.539Z,27.29
2022-08-21T13:05:32.872Z,27.36
2022-08-21T13:08:06.257Z,27.42
2022-08-21T13:10:36.734Z,27.40
2022-08-21T13:13:28.138Z,27.41
2022-08-21T13:16:04.179Z,27.54
2022-08-21T13:18:37.371Z,27.56
2022-08-21T13:21:09.560Z,27.57
2022-08-21T13:23:37.837Z,27.60
2022-08-21T13:26:18.355Z,27.60
2022-08-21T13:28:49.100Z,27.54
2022-08-21T13:31:26.518Z,27.57
2022-08-21T13:33:56.981Z,27.62
2022-08-21T13:36:31.558Z,27.77
2022-08-21T13:39:00.494Z,27.80
2022-08-21T13:41:31.761Z,27.84
2022-08-21T13:44:02.314Z,27.91
2022-08-21T13:46:35.469Z,27.90
2022-08-21T13:49:07.126Z,27.94
2022-08-21T13:51:35.702Z,27.82
2022-08-21T13:54:04.678Z,27.71
2022-08-21T13:56:42.966Z,27.73
2022-08-21T13:59:11.192Z,27.58
2022-08-21T14:01:55.511Z,27.56
2022-08-21T14:04:28.242Z,27.49
2022-08-21T14:06:56.443Z,27.43
2022-08-21T14:09:50.424Z,27.39
2022-08-21T14:12:31.363Z,27.31
2022-08-21T14:15:03.923Z,27.32
2022-08-21T14:17:37.716Z,27.31
2022-08-21T14:20:10.722Z,27.34
2022-08-21T14:22:42.571Z,27.33
2022-08-21T14:25:15.502Z,27.33
2022-08-21T14:27:51.264Z,27.37
2022-08-21T14:30:24.105Z,27.40
2022-08-21T14:32:54.132Z,27.39
2022-08-21T14:35:24.587Z,27.39
2022-08-21T14:37:54.964Z,27.40
2022-08-21T14:40:26.671Z,27.45
2022-08-21T14:42:55.230Z,27.38
2022-08-21T14:45:32.474Z,27.33
2022-08-21T14:48:01.966Z,27.36
2022-08-21T14:50:30.295Z,27.21
2022-08-21T14:52:58.533Z,27.13
2022-08-21T14:55:28.318Z,27.23
2022-08-21T14:57:58.184Z,27.26
2022-08-21T15:00:35.891Z,27.25
2022-08-21T15:03:05.898Z,27.24
2022-08-21T15:05:34.429Z,27.21
2022-08-21T15:08:02.751Z,27.13
2022-08-21T15:10:34.818Z,27.19
2022-08-21T15:13:03.241Z,27.17
2022-08-21T15:15:34.267Z,27.23
2022-08-21T15:18:02.337Z,27.24
2022-08-21T15:20:31.723Z,27.33
2022-08-21T15:22:59.926Z,27.28
2022-08-21T15:25:28.130Z,27.27
2022-08-21T15:27:56.618Z,27.25
2022-08-21T15:30:24.687Z,27.22
2022-08-21T15:32:53.039Z,27.26
2022-08-21T15:35:21.391Z,27.33
2022-08-21T15:37:50.775Z,27.34
2022-08-21T15:40:19.296Z,27.31
2022-08-21T15:42:48.467Z,27.29
2022-08-21T15:45:16.691Z,27.30
2022-08-21T15:47:47.363Z,27.32
2022-08-21T15:50:16.073Z,27.31
2022-08-21T15:52:44.185Z,27.29
2022-08-21T15:55:14.400Z,27.28
2022-08-21T15:57:56.769Z,27.31
2022-08-21T16:00:26.737Z,27.20
2022-08-21T16:02:58.067Z,27.19
2022-08-21T16:05:26.702Z,27.26
2022-08-21T16:07:54.892Z,27.29
2022-08-21T16:10:28.466Z,27.18
2022-08-21T16:13:03.705Z,27.19
2022-08-21T16:15:32.012Z,27.17
2022-08-21T16:18:00.803Z,27.17
2022-08-21T16:20:31.223Z,27.14
2022-08-21T16:23:00.369Z,27.12
2022-08-21T16:25:29.867Z,27.11
2022-08-21T16:28:02.393Z,27.08
2022-08-21T16:30:31.729Z,27.03
2022-08-21T16:33:02.345Z,27.05
2022-08-21T16:35:31.286Z,27.11
2022-08-21T16:37:59.569Z,27.06
2022-08-21T16:40:29.379Z,27.00
2022-08-21T16:42:57.987Z,26.97
2022-08-21T16:45:31.095Z,27.01
2022-08-21T16:48:01.274Z,26.98
2022-08-21T16:50:29.329Z,26.97
2022-08-21T16:52:57.671Z,26.93
2022-08-21T16:55:25.980Z,26.90
2022-08-21T16:57:56.742Z,26.84
2022-08-21T17:00:24.827Z,26.86
2022-08-21T17:02:56.330Z,26.87
2022-08-21T17:05:24.649Z,26.84
2022-08-21T17:07:52.757Z,26.85
2022-08-21T17:10:21.565Z,26.82
2022-08-21T17:12:56.996Z,26.82
2022-08-21T17:15:29.211Z,26.66
2022-08-21T17:17:57.565Z,26.77
2022-08-21T17:20:26.418Z,26.67
2022-08-21T17:22:54.523Z,26.56
2022-08-21T17:25:22.767Z,26.57
2022-08-21T17:27:51.607Z,26.60
2022-08-21T17:30:21.805Z,26.56
2022-08-21T17:32:53.730Z,26.48
2022-08-21T17:35:22.765Z,26.42
2022-08-21T17:37:50.863Z,26.43
2022-08-21T17:40:19.424Z,26.45
2022-08-21T17:42:49.485Z,26.41
2022-08-21T17:45:21.044Z,26.38
2022-08-21T17:47:49.205Z,26.29
2022-08-21T17:50:22.730Z,26.26
2022-08-21T17:52:51.961Z,26.21
2022-08-21T17:55:21.010Z,26.22
2022-08-21T17:57:52.205Z,26.21
2022-08-21T18:00:22.717Z,26.19
2022-08-21T18:03:09.056Z,26.13
2022-08-21T18:05:37.211Z,26.10
2022-08-21T18:08:05.361Z,26.06
2022-08-21T18:10:33.903Z,26.01
2022-08-21T18:13:06.476Z,25.97
2022-08-21T18:15:36.699Z,25.96
2022-08-21T18:18:06.677Z,25.92
2022-08-21T18:20:34.859Z,25.89
2022-08-21T18:23:02.929Z,25.80
2022-08-21T18:25:31.765Z,25.72
2022-08-21T18:28:09.160Z,25.66
2022-08-21T18:30:43.581Z,25.55
2022-08-21T18:33:14.538Z,25.48
2022-08-21T18:35:43.971Z,25.44
2022-08-21T18:38:12.872Z,25.35
2022-08-21T18:40:47.619Z,25.30
2022-08-21T18:43:15.851Z,25.23
2022-08-21T18:45:45.467Z,25.18
2022-08-21T18:48:15.833Z,25.13
2022-08-21T18:50:47.976Z,25.06
2022-08-21T18:53:36.541Z,25.00
2022-08-21T18:56:08.246Z,24.98
2022-08-21T18:58:44.940Z,24.95
2022-08-21T19:01:14.514Z,24.91
2022-08-21T19:03:42.957Z,24.89
2022-08-21T19:06:11.973Z,24.84
2022-08-21T19:08:40.250Z,24.82
2022-08-21T19:11:09.041Z,24.76
2022-08-21T19:13:37.584Z,24.71
2022-08-21T19:18:56.183Z,24.60
2022-08-21T19:21:31.002Z,24.55
2022-08-21T19:23:59.759Z,24.52
2022-08-21T19:26:29.961Z,24.46
2022-08-21T19:29:02.044Z,24.41
2022-08-21T19:31:34.487Z,24.37
2022-08-21T19:34:09.505Z,24.31
2022-08-21T19:36:37.847Z,24.24
2022-08-21T19:39:08.194Z,24.23
2022-08-21T19:41:41.838Z,24.12
2022-08-21T19:44:16.025Z,23.99
2022-08-21T19:49:20.202Z,23.81
2022-08-21T19:51:50.715Z,23.71
2022-08-21T19:54:22.488Z,23.66
2022-08-21T19:56:52.751Z,23.61
2022-08-21T20:02:11.729Z,23.53
2022-08-21T20:04:54.028Z,23.47
2022-08-21T20:07:26.643Z,23.38
2022-08-21T20:09:55.125Z,23.33
2022-08-21T20:12:24.992Z,23.27
2022-08-21T20:14:54.112Z,23.21
2022-08-21T20:17:22.763Z,23.08
2022-08-21T20:19:55.271Z,22.98
2022-08-21T20:22:24.502Z,22.87
2022-08-21T20:24:55.229Z,22.83
2022-08-21T20:27:27.976Z,22.78
2022-08-21T20:29:56.750Z,22.68
2022-08-21T20:32:25.049Z,22.54
2022-08-21T20:34:55.650Z,22.50
2022-08-21T20:37:36.615Z,22.45
2022-08-21T20:40:16.789Z,22.40
2022-08-21T20:42:53.673Z,22.37
2022-08-21T20:45:28.898Z,22.35
2022-08-21T20:48:11.831Z,22.34
2022-08-21T20:50:46.917Z,22.35
2022-08-21T20:53:21.873Z,22.26
2022-08-21T20:55:52.422Z,22.22
2022-08-21T20:58:32.065Z,22.17
2022-08-21T21:01:06.202Z,22.17
2022-08-21T21:03:42.338Z,22.12
2022-08-21T21:06:18.422Z,22.08
2022-08-21T21:08:51.179Z,22.05
2022-08-21T21:11:24.800Z,22.03
2022-08-21T21:13:58.377Z,21.94
2022-08-21T21:16:33.194Z,21.86
2022-08-21T21:19:07.205Z,21.80
2022-08-21T21:24:39.034Z,21.70
2022-08-21T21:27:18.606Z,21.65
2022-08-21T21:29:53.083Z,21.55
2022-08-21T21:32:22.315Z,21.54
2022-08-21T21:34:51.188Z,21.55
2022-08-21T21:37:26.714Z,21.57
2022-08-21T21:40:03.295Z,21.54
2022-08-21T21:42:52.406Z,21.55
2022-08-21T21:45:28.655Z,21.57
2022-08-21T21:48:21.376Z,21.58
2022-08-21T21:53:56.810Z,21.53
2022-08-21T21:56:36.118Z,21.52
2022-08-21T21:59:38.164Z,21.44
2022-08-21T22:02:16.906Z,21.43
2022-08-21T22:05:03.177Z,21.36
2022-08-21T22:07:41.096Z,21.35
2022-08-21T22:10:30.524Z,21.28
2022-08-21T22:13:13.315Z,21.24
2022-08-21T22:15:55.369Z,21.10
2022-08-21T22:18:28.355Z,21.06
2022-08-21T22:21:02.572Z,21.03
2022-08-21T22:23:35.086Z,21.06
2022-08-21T22:26:12.593Z,21.05
2022-08-21T22:28:45.105Z,21.05
2022-08-21T22:31:21.042Z,21.07
2022-08-21T22:37:00.356Z,21.03
2022-08-21T22:39:38.797Z,21.02
2022-08-21T22:42:13.544Z,21.02
2022-08-21T22:44:53.864Z,21.01
2022-08-21T22:47:26.527Z,20.97
2022-08-21T22:50:02.278Z,20.94
2022-08-21T22:52:36.183Z,20.93
2022-08-21T22:55:24.218Z,20.90
2022-08-21T22:58:09.149Z,20.86
2022-08-21T23:00:54.713Z,20.84
2022-08-21T23:03:32.548Z,20.81
2022-08-21T23:06:03.219Z,20.79
2022-08-21T23:08:41.589Z,20.76
2022-08-21T23:11:23.322Z,20.70
2022-08-21T23:13:56.217Z,20.69
2022-08-21T23:16:47.213Z,20.64
2022-08-21T23:19:49.174Z,20.52
2022-08-21T23:22:37.000Z,20.49
2022-08-21T23:25:28.793Z,20.45
2022-08-21T23:28:06.794Z,20.42
2022-08-21T23:30:47.227Z,20.39
2022-08-21T23:33:39.221Z,20.44
2022-08-21T23:36:38.725Z,20.37
2022-08-21T23:39:25.815Z,20.40
2022-08-21T23:42:00.850Z,20.40
2022-08-21T23:44:47.045Z,20.44
2022-08-21T23:47:36.965Z,20.45
2022-08-21T23:50:14.470Z,20.41
2022-08-21T23:52:59.662Z,20.35
2022-08-21T23:55:41.055Z,20.36
2022-08-21T23:58:30.309Z,20.35
